createdAt,value
2019-06-07T00:00:39.158Z,6.5
2019-06-07T00:01:32.619Z,6.3
2019-06-07T00:02:32.665Z,6.5
2019-06-07T00:03:32.747Z,6.2
2019-06-07T00:04:32.921Z,6.3
2019-06-07T00:05:32.955Z,6.1
2019-06-07T00:06:32.919Z,5.9
2019-06-07T00:07:33.075Z,6.1
2019-06-07T00:08:33.207Z,6
2019-06-07T00:09:33.239Z,6.2
2019-06-07T00:10:36.347Z,6.2
2019-06-07T00:11:33.401Z,5.7
2019-06-07T00:12:33.556Z,6.2
2019-06-07T00:13:33.566Z,6.5
2019-06-07T00:14:33.572Z,6
2019-06-07T00:15:33.567Z,6.2
2019-06-07T00:16:33.573Z,6.6
2019-06-07T00:17:33.573Z,6
2019-06-07T00:18:33.702Z,6.2
2019-06-07T00:19:33.862Z,6.2
2019-06-07T00:20:35.030Z,6.5
2019-06-07T00:22:13.343Z,6.5
2019-06-07T00:22:34.147Z,6.6
2019-06-07T00:23:34.357Z,6.3
2019-06-07T00:24:34.377Z,6
2019-06-07T00:25:34.396Z,6.6
2019-06-07T00:26:55.049Z,5.8
2019-06-07T00:27:34.522Z,5.8
2019-06-07T00:28:34.528Z,6.2
2019-06-07T00:29:34.514Z,6.3
2019-06-07T00:30:45.596Z,5.8
2019-06-07T00:31:34.656Z,6.6
2019-06-07T00:32:34.790Z,6.1
2019-06-07T00:33:34.923Z,5.9
2019-06-07T00:34:35.073Z,6
2019-06-07T00:35:35.095Z,6.4
2019-06-07T00:36:35.092Z,6.5
2019-06-07T00:37:35.235Z,6
2019-06-07T00:38:35.243Z,6.4
2019-06-07T00:39:35.384Z,6.3
2019-06-07T00:40:35.547Z,6
2019-06-07T00:41:35.693Z,6.6
2019-06-07T00:42:35.665Z,6.3
2019-06-07T00:43:35.658Z,6.3
2019-06-07T00:44:35.829Z,6.2
2019-06-07T00:45:35.840Z,6.1
2019-06-07T00:46:35.834Z,5.9
2019-06-07T00:47:35.831Z,6.1
2019-06-07T00:48:35.865Z,6.5
2019-06-07T00:49:40.860Z,6.3
2019-06-07T00:50:36.017Z,5.9
2019-06-07T00:51:49.866Z,6.3
2019-06-07T00:53:13.695Z,6
2019-06-07T00:53:36.092Z,6.2
2019-06-07T00:54:36.277Z,6.5
2019-06-07T00:55:36.268Z,6.2
2019-06-07T00:56:36.305Z,6.7
2019-06-07T00:57:36.307Z,6.4
2019-06-07T00:58:36.447Z,6.3
2019-06-07T00:59:36.600Z,6.7
2019-06-07T01:00:36.756Z,6.8
2019-06-07T01:01:36.777Z,7.3
2019-06-07T01:02:36.745Z,6.8
2019-06-07T01:03:36.912Z,7
2019-06-07T01:04:37.097Z,7.1
2019-06-07T01:05:37.055Z,6.8
2019-06-07T01:06:37.244Z,7.2
2019-06-07T01:07:37.255Z,6.9
2019-06-07T01:08:37.398Z,7.8
2019-06-07T01:09:37.419Z,7
2019-06-07T01:10:52.785Z,7.8
2019-06-07T01:11:37.612Z,7.4
2019-06-07T01:12:37.703Z,7.5
2019-06-07T01:13:37.819Z,7.4
2019-06-07T01:14:37.833Z,7.4
2019-06-07T01:15:37.865Z,7.6
2019-06-07T01:16:56.190Z,7.8
2019-06-07T01:17:49.881Z,7.3
2019-06-07T01:18:45.527Z,7.5
2019-06-07T01:19:38.269Z,7.3
2019-06-07T01:20:38.264Z,7.7
2019-06-07T01:21:38.352Z,7.7
2019-06-07T01:22:38.408Z,7.6
2019-06-07T01:24:11.261Z,8.1
2019-06-07T01:24:38.581Z,7.6
2019-06-07T01:25:38.602Z,7.8
2019-06-07T01:26:38.638Z,7.2
2019-06-07T01:27:38.694Z,7.3
2019-06-07T01:28:38.660Z,7.3
2019-06-07T01:29:39.771Z,7.4
2019-06-07T01:30:39.029Z,7.5
2019-06-07T01:31:38.999Z,7.8
2019-06-07T01:32:39.140Z,7.6
2019-06-07T01:33:50.607Z,7.5
2019-06-07T01:34:39.397Z,7.2
2019-06-07T01:35:39.491Z,7.3
2019-06-07T01:36:39.499Z,7.4
2019-06-07T01:37:39.553Z,7.6
2019-06-07T01:38:39.667Z,8.1
2019-06-07T01:39:39.820Z,7.9
2019-06-07T01:40:39.840Z,9
2019-06-07T01:41:39.894Z,8
2019-06-07T01:42:39.968Z,8.7
2019-06-07T02:01:42.129Z,8.7
2019-06-07T02:14:42.047Z,7.3
2019-06-07T02:16:42.088Z,8
2019-06-07T02:17:42.178Z,7.8
2019-06-07T02:19:00.503Z,7.7
2019-06-07T02:19:42.405Z,7.6
2019-06-07T02:20:42.511Z,7.6
2019-06-07T02:21:42.635Z,7.6
2019-06-07T02:22:42.821Z,7.6
2019-06-07T02:23:42.820Z,7.8
2019-06-07T02:24:43.717Z,8.3
2019-06-07T02:25:49.695Z,8.2
2019-06-07T02:26:43.876Z,8
2019-06-07T02:27:42.938Z,8.6
2019-06-07T02:28:45.421Z,8.4
2019-06-07T02:29:43.044Z,8.4
2019-06-07T02:30:50.342Z,8.2
2019-06-07T02:31:43.138Z,8.2
2019-06-07T02:32:43.162Z,8.1
2019-06-07T02:33:43.221Z,8.3
2019-06-07T02:34:44.254Z,8.1
2019-06-07T02:35:43.287Z,8.2
2019-06-07T02:36:43.317Z,8.4
2019-06-07T02:37:43.358Z,8.1
2019-06-07T02:38:43.429Z,8.3
2019-06-07T02:39:43.463Z,7.9
2019-06-07T02:40:43.562Z,8.7
2019-06-07T02:41:43.582Z,8.2
2019-06-07T02:42:43.601Z,8.3
2019-06-07T02:43:43.671Z,8.4
2019-06-07T02:44:43.699Z,8.7
2019-06-07T02:45:43.989Z,8.3
2019-06-07T02:46:47.141Z,7.8
2019-06-07T02:47:43.815Z,8.3
2019-06-07T02:48:43.904Z,8.6
2019-06-07T02:49:44.502Z,9
2019-06-07T02:50:43.970Z,9.2
2019-06-07T02:51:43.984Z,8.3
2019-06-07T02:52:44.011Z,9.3
2019-06-07T02:53:44.110Z,9.8
2019-06-07T02:54:44.141Z,9.4
2019-06-07T02:56:33.733Z,9.8
2019-06-07T02:56:57.153Z,9.6
2019-06-07T02:57:44.191Z,9
2019-06-07T02:58:44.271Z,8.6
2019-06-07T03:00:04.897Z,8.3
2019-06-07T03:01:07.352Z,9.8
2019-06-07T03:01:45.321Z,9.5
2019-06-07T03:02:44.344Z,8.9
2019-06-07T03:03:44.423Z,8.6
2019-06-07T03:04:45.003Z,8.5
2019-06-07T03:05:44.510Z,8.5
2019-06-07T03:06:44.531Z,9.1
2019-06-07T03:07:45.650Z,8.6
2019-06-07T03:08:44.579Z,9.3
2019-06-07T03:09:44.681Z,9.3
2019-06-07T03:10:44.674Z,9
2019-06-07T03:11:44.723Z,9.6
2019-06-07T03:12:44.771Z,8.8
2019-06-07T03:13:46.177Z,8.7
2019-06-07T03:14:44.919Z,9.6
2019-06-07T03:15:49.914Z,9.4
2019-06-07T03:16:45.967Z,9.1
2019-06-07T03:21:46.404Z,8.7
2019-06-07T03:23:45.544Z,8.9
2019-06-07T03:24:45.641Z,9
2019-06-07T03:25:45.727Z,8.8
2019-06-07T03:27:31.673Z,8.6
2019-06-07T03:27:49.740Z,8.4
2019-06-07T03:28:45.870Z,8.5
2019-06-07T03:29:46.999Z,9.1
2019-06-07T03:31:00.595Z,9.1
2019-06-07T03:31:48.255Z,8.5
2019-06-07T03:32:47.694Z,9
2019-06-07T03:33:46.304Z,9.1
2019-06-07T03:34:46.453Z,8.8
2019-06-07T03:35:46.449Z,8.9
2019-06-07T03:36:46.440Z,9.5
2019-06-07T03:37:46.429Z,8.7
2019-06-07T03:38:46.434Z,8.2
2019-06-07T03:39:46.519Z,8.5
2019-06-07T03:40:46.601Z,8.2
2019-06-07T03:42:04.995Z,8.2
2019-06-07T03:42:47.760Z,9.2
2019-06-07T03:43:46.736Z,8.4
2019-06-07T03:44:46.877Z,8.7
2019-06-07T03:45:47.018Z,8.6
2019-06-07T03:46:47.018Z,8.5
2019-06-07T03:47:47.024Z,8.7
2019-06-07T03:48:47.176Z,8.8
2019-06-07T03:49:47.248Z,9
2019-06-07T03:51:03.814Z,8.7
2019-06-07T03:51:47.537Z,9.3
2019-06-07T03:52:47.544Z,10
2019-06-07T03:53:47.540Z,9.4
2019-06-07T03:54:47.743Z,9.5
2019-06-07T03:55:47.720Z,9.3
2019-06-07T03:56:47.709Z,9.5
2019-06-07T03:58:49.997Z,9.2
2019-06-07T03:59:48.075Z,9.2
2019-06-07T04:00:48.093Z,9.7
2019-06-07T04:01:48.069Z,9.4
2019-06-07T04:02:48.240Z,9.1
2019-06-07T04:03:51.553Z,9
2019-06-07T04:04:48.376Z,8.8
2019-06-07T04:05:48.615Z,8.9
2019-06-07T04:06:48.548Z,9.4
2019-06-07T04:07:48.624Z,9.1
2019-06-07T04:08:48.632Z,9.2
2019-06-07T04:09:48.771Z,9.2
2019-06-07T04:10:59.438Z,9.2
2019-06-07T04:11:48.905Z,9.6
2019-06-07T04:12:48.888Z,9.7
2019-06-07T04:13:49.039Z,9.3
2019-06-07T04:14:49.222Z,9.5
2019-06-07T04:15:49.287Z,9.2
2019-06-07T04:16:49.290Z,9.4
2019-06-07T04:18:01.231Z,9.2
2019-06-07T04:18:50.425Z,8.8
2019-06-07T04:19:49.583Z,9.8
2019-06-07T04:20:49.603Z,9.5
2019-06-07T04:21:49.645Z,9.3
2019-06-07T04:22:49.633Z,10
2019-06-07T04:23:49.786Z,10.2
2019-06-07T04:24:49.947Z,10.3
2019-06-07T04:25:49.970Z,10.7
2019-06-07T04:26:49.987Z,10.2
2019-06-07T04:27:49.991Z,9.9
2019-06-07T04:30:06.289Z,9.7
2019-06-07T04:30:50.253Z,9.7
2019-06-07T04:31:50.275Z,9.7
2019-06-07T04:32:50.257Z,10.2
2019-06-07T04:33:50.410Z,10
2019-06-07T04:34:50.578Z,10.9
2019-06-07T04:35:50.568Z,10.2
2019-06-07T04:36:56.930Z,9.8
2019-06-07T04:37:50.558Z,10.2
2019-06-07T04:38:50.561Z,10.5
2019-06-07T04:39:50.551Z,9.8
2019-06-07T04:40:50.698Z,9.7
2019-06-07T04:41:50.908Z,9.4
2019-06-07T04:42:50.911Z,9
2019-06-07T04:43:51.057Z,9.6
2019-06-07T04:44:51.049Z,9.6
2019-06-07T04:45:51.474Z,9.4
2019-06-07T04:46:51.206Z,8.9
2019-06-07T04:47:51.223Z,9.1
2019-06-07T04:48:51.217Z,9.6
2019-06-07T04:49:51.217Z,9.5
2019-06-07T04:50:52.365Z,9.2
2019-06-07T04:51:51.391Z,9.4
2019-06-07T04:52:51.383Z,9.9
2019-06-07T04:53:51.386Z,9.4
2019-06-07T04:54:51.357Z,9.2
2019-06-07T04:55:51.534Z,9.9
2019-06-07T04:56:51.555Z,9.7
2019-06-07T04:57:51.550Z,9.2
2019-06-07T04:58:51.557Z,9.3
2019-06-07T05:00:11.674Z,9.3
2019-06-07T05:00:56.158Z,9.4
2019-06-07T05:01:51.898Z,9.5
2019-06-07T05:02:52.118Z,9.4
2019-06-07T05:03:51.989Z,9.7
2019-06-07T05:04:51.990Z,9.4
2019-06-07T05:05:51.987Z,9.6
2019-06-07T05:06:52.021Z,9.9
2019-06-07T05:07:52.038Z,9.7
2019-06-07T05:08:52.055Z,9.3
2019-06-07T05:09:52.051Z,9.5
2019-06-07T05:10:52.211Z,9.9
2019-06-07T05:11:52.227Z,9.5
2019-06-07T05:12:52.253Z,9.9
2019-06-07T05:13:52.263Z,9.3
2019-06-07T05:14:52.296Z,9.1
2019-06-07T05:15:52.306Z,9
2019-06-07T05:16:52.344Z,9
2019-06-07T05:17:52.346Z,8.4
2019-06-07T05:18:52.353Z,8.6
2019-06-07T05:19:52.354Z,8.5
2019-06-07T05:20:52.361Z,8.3
2019-06-07T05:22:03.347Z,8.1
2019-06-07T05:22:52.352Z,8.4
2019-06-07T05:24:10.464Z,8.1
2019-06-07T05:24:52.633Z,8.4
2019-06-07T05:25:53.791Z,8.4
2019-06-07T05:26:52.795Z,8.6
2019-06-07T05:27:52.845Z,8.1
2019-06-07T05:28:52.903Z,8.4
2019-06-07T05:30:09.380Z,7.6
2019-06-07T05:31:04.923Z,8.4
2019-06-07T05:31:53.034Z,7.9
2019-06-07T05:32:53.052Z,8.4
2019-06-07T05:33:53.049Z,8.4
2019-06-07T05:34:53.205Z,7.8
2019-06-07T05:35:53.380Z,7.5
2019-06-07T05:37:10.911Z,8.3
2019-06-07T05:37:53.563Z,8.1
2019-06-07T05:38:53.573Z,7.7
2019-06-07T05:39:53.559Z,8.4
2019-06-07T05:40:53.708Z,8.5
2019-06-07T05:41:53.863Z,8.5
2019-06-07T05:42:53.937Z,8.5
2019-06-07T05:44:11.516Z,8.3
2019-06-07T05:44:54.076Z,8.7
2019-06-07T05:45:54.065Z,8.2
2019-06-07T05:46:54.211Z,8.8
2019-06-07T05:47:54.533Z,9.1
2019-06-07T05:48:54.393Z,8.4
2019-06-07T05:49:54.432Z,9.1
2019-06-07T05:50:57.167Z,9
2019-06-07T05:52:54.444Z,9
2019-06-07T05:53:54.465Z,8.9
2019-06-07T05:54:54.446Z,9
2019-06-07T05:55:54.603Z,9.3
2019-06-07T05:56:54.603Z,9
2019-06-07T05:57:54.608Z,8.5
2019-06-07T05:58:55.654Z,8.2
2019-06-07T06:00:54.715Z,8.5
2019-06-07T06:02:02.228Z,8.6
2019-06-07T06:03:04.592Z,8.4
2019-06-07T06:03:54.967Z,8.5
2019-06-07T06:04:54.948Z,8.4
2019-06-07T06:05:55.749Z,8.6
2019-06-07T06:06:55.098Z,8.4
2019-06-07T06:07:55.114Z,9
2019-06-07T06:09:12.784Z,8.3
2019-06-07T06:21:57.570Z,7.6
2019-06-07T06:25:58.433Z,7.7
2019-06-07T06:28:11.388Z,7.4
2019-06-07T06:32:58.847Z,7.2
2019-06-07T06:33:57.462Z,7.4
2019-06-07T06:34:57.483Z,7.6
2019-06-07T06:35:57.498Z,7.5
2019-06-07T06:36:57.496Z,7.5
2019-06-07T06:37:57.478Z,7.5
2019-06-07T06:38:57.645Z,7.4
2019-06-07T06:39:57.669Z,7.4
2019-06-07T06:41:14.202Z,7.1
2019-06-07T06:42:03.446Z,7.5
2019-06-07T06:42:57.800Z,7.4
2019-06-07T06:43:57.976Z,7.7
2019-06-07T06:44:57.982Z,7.3
2019-06-07T06:45:57.988Z,7
2019-06-07T06:46:58.635Z,8
2019-06-07T06:47:58.129Z,8
2019-06-07T06:48:58.405Z,7.2
2019-06-07T06:49:58.138Z,7.3
2019-06-07T06:50:58.163Z,6.9
2019-06-07T06:51:58.139Z,7.1
2019-06-07T06:52:58.098Z,6.5
2019-06-07T06:53:58.241Z,6.4
2019-06-07T06:55:00.678Z,6.7
2019-06-07T06:55:58.391Z,5.9
2019-06-07T06:57:17.530Z,6.1
2019-06-07T06:57:59.677Z,6.1
2019-06-07T06:59:35.736Z,5.4
2019-06-07T06:59:58.996Z,5.7
2019-06-07T07:01:06.282Z,5.3
2019-06-07T07:01:59.083Z,5.7
2019-06-07T07:04:11.873Z,5.8
2019-06-07T07:04:59.477Z,5.9
2019-06-07T07:06:22.301Z,5.9
2019-06-07T07:06:59.525Z,5.6
2019-06-07T07:07:59.544Z,5.7
2019-06-07T07:08:59.526Z,6
2019-06-07T07:10:00.070Z,5.6
2019-06-07T07:11:00.860Z,5.6
2019-06-07T07:12:10.693Z,5.2
2019-06-07T07:13:00.972Z,5.9
2019-06-07T07:14:00.117Z,5.3
2019-06-07T07:15:00.297Z,5.1
2019-06-07T07:16:00.291Z,5.5
2019-06-07T07:17:00.267Z,5.2
2019-06-07T07:18:08.082Z,5.6
2019-06-07T07:19:00.449Z,5.5
2019-06-07T07:20:00.465Z,5.5
2019-06-07T07:21:00.462Z,5.2
2019-06-07T07:22:00.462Z,5.5
2019-06-07T07:23:00.435Z,5.8
2019-06-07T07:24:20.037Z,5.6
2019-06-07T07:25:00.717Z,5.2
2019-06-07T07:26:00.722Z,5.5
2019-06-07T07:27:00.740Z,5.6
2019-06-07T07:28:00.726Z,5.3
2019-06-07T07:29:00.912Z,5.4
2019-06-07T07:30:34.607Z,5.7
2019-06-07T07:31:01.169Z,6
2019-06-07T07:32:01.151Z,5.9
2019-06-07T07:33:01.392Z,5.6
2019-06-07T07:35:01.402Z,6
2019-06-07T07:36:23.010Z,5.9
2019-06-07T07:37:01.705Z,6.4
2019-06-07T07:38:01.688Z,5.6
2019-06-07T07:39:04.781Z,5.6
2019-06-07T07:40:48.002Z,5.7
2019-06-07T07:41:13.701Z,5.7
2019-06-07T07:42:18.510Z,6.1
2019-06-07T07:43:03.239Z,6.2
2019-06-07T07:44:06.838Z,6.1
2019-06-07T07:45:03.482Z,6
2019-06-07T07:46:06.018Z,6.2
2019-06-07T07:47:03.698Z,6.4
2019-06-07T07:48:15.225Z,7
2019-06-07T07:49:03.781Z,6.2
2019-06-07T07:50:02.914Z,7.2
2019-06-07T07:51:03.479Z,6.6
2019-06-07T07:52:03.239Z,6.5
2019-06-07T07:53:03.224Z,6.5
2019-06-07T07:54:10.419Z,5.8
2019-06-07T07:55:03.552Z,5.7
2019-06-07T07:56:03.972Z,6
2019-06-07T07:57:03.711Z,5.7
2019-06-07T07:58:03.688Z,5.8
2019-06-07T07:59:04.097Z,5.6
2019-06-07T08:00:36.674Z,5.8
2019-06-07T08:01:10.511Z,5.5
2019-06-07T08:02:05.236Z,6.2
2019-06-07T08:03:04.707Z,5.8
2019-06-07T08:04:04.397Z,6.1
2019-06-07T08:05:20.855Z,6
2019-06-07T08:06:05.529Z,5.5
2019-06-07T08:07:04.679Z,5.1
2019-06-07T08:08:07.420Z,5.7
2019-06-07T08:09:05.818Z,5.3
2019-06-07T08:10:04.833Z,5.3
2019-06-07T08:11:04.842Z,5.6
2019-06-07T08:12:04.855Z,5.3
2019-06-07T08:13:23.200Z,6
2019-06-07T08:14:05.967Z,5.8
2019-06-07T08:15:05.143Z,5.7
2019-06-07T08:16:11.738Z,6.6
2019-06-07T08:17:06.469Z,6.8
2019-06-07T08:18:05.413Z,6.5
2019-06-07T08:19:05.569Z,6.4
2019-06-07T08:20:05.708Z,6.4
2019-06-07T08:21:22.418Z,6.3
2019-06-07T08:22:07.006Z,6.5
2019-06-07T08:23:05.973Z,6.6
2019-06-07T08:24:06.107Z,6.8
2019-06-07T08:25:06.267Z,7
2019-06-07T08:26:06.462Z,7
2019-06-07T08:27:25.069Z,7
2019-06-07T08:28:07.569Z,7
2019-06-07T08:29:06.721Z,6.7
2019-06-07T08:30:34.930Z,6.8
2019-06-07T08:31:08.285Z,7.3
2019-06-07T08:32:07.105Z,7.2
2019-06-07T08:33:25.161Z,6.8
2019-06-07T08:34:08.246Z,7.1
2019-06-07T08:35:07.386Z,6.5
2019-06-07T08:36:19.751Z,7
2019-06-07T08:37:08.588Z,6.6
2019-06-07T08:38:23.036Z,5.7
2019-06-07T08:39:08.836Z,6.1
2019-06-07T08:40:07.979Z,5.9
2019-06-07T08:41:11.657Z,5.8
2019-06-07T08:42:15.786Z,6
2019-06-07T08:43:19.414Z,5.7
2019-06-07T08:44:22.636Z,6.5
2019-06-07T08:45:08.569Z,6.5
2019-06-07T08:46:08.714Z,6.3
2019-06-07T08:47:19.669Z,6.6
2019-06-07T08:48:26.903Z,6.1
2019-06-07T08:49:10.121Z,6
2019-06-07T08:50:09.111Z,5.9
2019-06-07T08:51:09.102Z,6.3
2019-06-07T08:52:12.032Z,6.4
2019-06-07T08:53:12.007Z,6.1
2019-06-07T08:55:10.441Z,7.8
2019-06-07T08:58:10.958Z,6.3
2019-06-07T09:00:42.146Z,5.8
2019-06-07T09:01:10.143Z,5.5
2019-06-07T09:02:23.181Z,6.2
2019-06-07T09:03:11.406Z,5.7
2019-06-07T09:07:19.418Z,6.4
2019-06-07T09:08:28.982Z,5.2
2019-06-07T09:09:11.141Z,5
2019-06-07T09:10:14.059Z,5
2019-06-07T09:11:11.711Z,5.5
2019-06-07T09:12:11.770Z,4.7
2019-06-07T09:13:12.075Z,4.2
2019-06-07T09:14:11.772Z,4.8
2019-06-07T09:15:21.204Z,4.6
2019-06-07T09:16:11.895Z,5.3
2019-06-07T09:17:12.821Z,4.9
2019-06-07T09:19:12.292Z,5.1
2019-06-07T09:20:34.913Z,4.6
2019-06-07T09:21:12.545Z,5.2
2019-06-07T09:22:12.670Z,5.2
2019-06-07T09:23:16.972Z,5.8
2019-06-07T09:24:13.067Z,5
2019-06-07T09:25:20.848Z,5
2019-06-07T09:26:18.027Z,4.9
2019-06-07T09:27:13.220Z,4.8
2019-06-07T09:28:19.295Z,4.6
2019-06-07T09:29:14.467Z,5.6
2019-06-07T09:30:18.469Z,5.4
2019-06-07T09:31:13.728Z,5.6
2019-06-07T09:32:18.003Z,5.5
2019-06-07T09:33:13.960Z,5.4
2019-06-07T09:34:15.380Z,5.3
2019-06-07T09:35:17.372Z,5.7
2019-06-07T09:36:14.244Z,5.1
2019-06-07T09:37:55.919Z,5.6
2019-06-07T09:38:24.682Z,5.6
2019-06-07T09:39:14.622Z,5.1
2019-06-07T09:40:24.087Z,4.7
2019-06-07T09:41:14.857Z,5.2
2019-06-07T09:42:14.965Z,5.5
2019-06-07T09:44:24.500Z,5
2019-06-07T09:45:15.374Z,5
2019-06-07T09:46:16.346Z,5.5
2019-06-07T09:47:30.867Z,5.1
2019-06-07T09:49:01.193Z,4.3
2019-06-07T09:49:30.437Z,4.2
2019-06-07T09:50:15.823Z,5.5
2019-06-07T09:51:19.576Z,5
2019-06-07T09:52:16.925Z,4
2019-06-07T09:53:22.196Z,3.6
2019-06-07T09:54:56.407Z,4.2
2019-06-07T09:55:24.137Z,3.9
2019-06-07T09:58:50.011Z,4.7
2019-06-07T09:59:17.609Z,4.7
2019-06-07T10:00:41.166Z,7.6
2019-06-07T10:01:18.045Z,5
2019-06-07T10:02:17.010Z,11.1
2019-06-07T10:03:21.711Z,9.8
2019-06-07T10:04:30.592Z,6.1
2019-06-07T10:05:18.280Z,5.1
2019-06-07T10:06:17.391Z,5.5
2019-06-07T10:07:31.087Z,3.8
2019-06-07T10:09:26.088Z,3.7
2019-06-07T10:11:18.875Z,3.8
2019-06-07T10:15:18.519Z,4.5
2019-06-07T10:16:18.512Z,4.6
2019-06-07T10:17:18.689Z,4.4
2019-06-07T10:18:18.661Z,3.5
2019-06-07T10:19:18.834Z,2.8
2019-06-07T10:20:18.897Z,2.6
2019-06-07T10:21:19.255Z,2.5
2019-06-07T10:22:19.012Z,2.6
2019-06-07T10:23:19.038Z,3.1
2019-06-07T10:24:19.047Z,3
2019-06-07T10:25:19.047Z,3.4
2019-06-07T10:26:19.100Z,2.9
2019-06-07T10:27:19.100Z,3.8
2019-06-07T10:28:19.112Z,3.6
2019-06-07T10:29:19.119Z,3.3
2019-06-07T10:30:19.241Z,3.8
2019-06-07T10:31:19.274Z,3.6
2019-06-07T10:32:19.274Z,4.1
2019-06-07T10:33:19.306Z,4.5
2019-06-07T10:34:19.317Z,3.8
2019-06-07T10:35:19.301Z,3.6
2019-06-07T10:36:19.558Z,4
2019-06-07T10:37:19.620Z,3
2019-06-07T10:38:19.643Z,3.4
2019-06-07T10:39:19.653Z,3.2
2019-06-07T10:40:19.654Z,3.4
2019-06-07T10:41:19.670Z,3.9
2019-06-07T10:42:19.696Z,3.3
2019-06-07T10:43:19.706Z,3.5
2019-06-07T10:44:19.771Z,3.5
2019-06-07T10:45:19.763Z,3.5
2019-06-07T10:46:19.787Z,3.7
2019-06-07T10:47:19.951Z,3.4
2019-06-07T10:48:19.785Z,3.7
2019-06-07T10:49:20.785Z,3.6
2019-06-07T10:50:19.823Z,11.3
2019-06-07T10:51:19.939Z,3.7
2019-06-07T10:52:19.970Z,3.9
2019-06-07T10:53:19.975Z,3.7
2019-06-07T10:54:26.930Z,4.1
2019-06-07T10:55:19.987Z,3.6
2019-06-07T10:56:19.994Z,3.7
2019-06-07T10:57:20.063Z,3.1
2019-06-07T10:58:20.075Z,3.1
2019-06-07T10:59:20.236Z,3.2
2019-06-07T11:00:20.229Z,3.1
2019-06-07T11:01:20.231Z,3
2019-06-07T11:02:20.274Z,3
2019-06-07T11:03:20.293Z,3.4
2019-06-07T11:04:20.296Z,3.3
2019-06-07T11:05:20.318Z,3.7
2019-06-07T11:06:20.354Z,3.2
2019-06-07T11:07:20.443Z,3.3
2019-06-07T11:08:20.435Z,3.9
2019-06-07T11:09:20.453Z,3.6
2019-06-07T11:10:20.568Z,3.8
2019-06-07T11:11:20.501Z,3.5
2019-06-07T11:12:20.537Z,3.4
2019-06-07T11:13:20.569Z,3.6
2019-06-07T11:14:20.589Z,3.5
2019-06-07T11:15:20.575Z,3.9
2019-06-07T11:16:20.580Z,4
2019-06-07T11:17:20.583Z,3.9
2019-06-07T11:18:20.603Z,4.2
2019-06-07T11:19:20.578Z,3.8
2019-06-07T11:20:20.763Z,3.5
2019-06-07T11:21:20.792Z,3.4
2019-06-07T11:22:20.830Z,3.6
2019-06-07T11:23:20.848Z,4.8
2019-06-07T11:24:24.510Z,4.4
2019-06-07T11:25:21.062Z,3.7
2019-06-07T11:26:21.097Z,4.3
2019-06-07T11:27:21.126Z,4
2019-06-07T11:28:21.311Z,4.4
2019-06-07T11:29:21.379Z,5.2
2019-06-07T11:30:21.424Z,4.8
2019-06-07T11:31:21.421Z,4.6
2019-06-07T11:32:21.435Z,4.2
2019-06-07T11:33:21.471Z,4.2
2019-06-07T11:34:21.493Z,4.7
2019-06-07T11:35:21.488Z,4.4
2019-06-07T11:36:21.531Z,4.2
2019-06-07T11:37:21.533Z,4
2019-06-07T11:38:21.583Z,4
2019-06-07T11:39:21.599Z,4.3
2019-06-07T11:40:33.858Z,4.4
2019-06-07T11:41:22.733Z,4.4
2019-06-07T11:42:21.944Z,4.4
2019-06-07T11:43:21.939Z,4.7
2019-06-07T11:44:21.966Z,4.2
2019-06-07T11:45:21.981Z,4.3
2019-06-07T11:46:21.995Z,4
2019-06-07T11:47:22.015Z,4
2019-06-07T11:48:22.059Z,4.3
2019-06-07T11:49:22.230Z,4.4
2019-06-07T11:50:22.113Z,4.3
2019-06-07T11:51:22.094Z,4.1
2019-06-07T11:52:22.272Z,4.2
2019-06-07T11:53:22.309Z,4.1
2019-06-07T11:54:22.346Z,4.1
2019-06-07T11:55:22.328Z,4.4
2019-06-07T11:56:22.495Z,3.9
2019-06-07T11:57:22.494Z,4.1
2019-06-07T11:58:22.494Z,4.1
2019-06-07T11:59:22.494Z,4.1
2019-06-07T12:00:22.497Z,4.3
2019-06-07T12:01:22.475Z,4.6
2019-06-07T12:02:22.635Z,4.6
2019-06-07T12:03:22.789Z,4.3
2019-06-07T12:04:34.274Z,4.2
2019-06-07T12:05:24.095Z,4.2
2019-06-07T12:06:23.279Z,4.5
2019-06-07T12:07:23.350Z,4.3
2019-06-07T12:08:23.395Z,4.4
2019-06-07T12:09:23.400Z,4.4
2019-06-07T12:10:24.388Z,4.6
2019-06-07T12:11:23.536Z,4.4
2019-06-07T12:12:23.702Z,4.5
2019-06-07T12:13:26.791Z,4.3
2019-06-07T12:14:24.908Z,4.1
2019-06-07T12:15:23.900Z,4.5
2019-06-07T12:16:24.060Z,4.4
2019-06-07T12:17:24.082Z,4.4
2019-06-07T12:18:24.108Z,4.4
2019-06-07T12:19:24.163Z,4.2
2019-06-07T12:20:24.183Z,4.4
2019-06-07T12:21:24.200Z,4.8
2019-06-07T12:22:24.246Z,4.2
2019-06-07T12:23:24.268Z,4.2
2019-06-07T12:24:27.556Z,4.3
2019-06-07T12:25:25.081Z,4.3
2019-06-07T12:26:24.557Z,4.6
2019-06-07T12:27:24.562Z,4.4
2019-06-07T12:28:24.579Z,4.6
2019-06-07T12:29:24.650Z,4.6
2019-06-07T12:30:27.845Z,4.7
2019-06-07T12:31:25.688Z,4.5
2019-06-07T12:32:24.653Z,4.7
2019-06-07T12:33:24.802Z,4.5
2019-06-07T12:34:25.038Z,12
2019-06-07T12:35:25.074Z,4.7
2019-06-07T12:36:25.256Z,4.9
2019-06-07T12:37:39.599Z,4.5
2019-06-07T12:38:25.391Z,4.5
2019-06-07T12:39:25.457Z,9.4
2019-06-07T12:40:30.008Z,11.6
2019-06-07T12:41:25.505Z,6.4
2019-06-07T12:42:25.659Z,6
2019-06-07T12:43:25.677Z,6
2019-06-07T12:44:25.690Z,4.9
2019-06-07T12:45:42.758Z,5
2019-06-07T12:46:28.443Z,5.3
2019-06-07T12:47:26.030Z,6.8
2019-06-07T12:48:26.272Z,5.5
2019-06-07T12:49:26.045Z,6.1
2019-06-07T12:50:39.467Z,5.2
2019-06-07T12:51:26.135Z,5.3
2019-06-07T12:52:26.145Z,4.9
2019-06-07T12:53:28.053Z,5
2019-06-07T12:54:26.268Z,5
2019-06-07T12:55:26.342Z,5.1
2019-06-07T12:56:26.391Z,5
2019-06-07T12:57:27.372Z,5.1
2019-06-07T12:58:33.831Z,4.8
2019-06-07T12:59:26.432Z,4.9
2019-06-07T13:00:26.484Z,5.2
2019-06-07T13:01:26.503Z,4.9
2019-06-07T13:02:26.514Z,4.6
2019-06-07T13:03:26.550Z,4.7
2019-06-07T13:04:27.725Z,4.5
2019-06-07T13:05:27.891Z,4.4
2019-06-07T13:06:27.722Z,4.2
2019-06-07T13:07:27.873Z,4.3
2019-06-07T13:08:28.164Z,4.4
2019-06-07T13:09:28.068Z,4.5
2019-06-07T13:10:28.128Z,4.4
2019-06-07T13:11:30.062Z,4.4
2019-06-07T13:12:28.213Z,4.5
2019-06-07T13:13:28.092Z,4.4
2019-06-07T13:14:28.495Z,4.5
2019-06-07T13:15:28.292Z,4.3
2019-06-07T13:16:28.146Z,4.4
2019-06-07T13:17:28.593Z,4.5
2019-06-07T13:18:28.408Z,4.1
2019-06-07T13:19:28.618Z,4.4
2019-06-07T13:20:28.815Z,4.1
2019-06-07T13:21:28.619Z,4.1
2019-06-07T13:22:28.563Z,4.3
2019-06-07T13:23:28.892Z,4.3
2019-06-07T13:24:28.774Z,4.2
2019-06-07T13:25:43.916Z,4.3
2019-06-07T13:26:28.626Z,4.1
2019-06-07T13:27:31.900Z,4.1
2019-06-07T13:28:28.930Z,4.1
2019-06-07T13:29:29.914Z,4
2019-06-07T13:30:28.927Z,3.9
2019-06-07T13:31:28.046Z,4.1
2019-06-07T13:32:28.178Z,3.7
2019-06-07T13:33:34.038Z,3.7
2019-06-07T13:34:28.136Z,3.6
2019-06-07T13:35:29.557Z,3.2
2019-06-07T13:36:28.461Z,2.6
2019-06-07T13:37:28.202Z,1.9
2019-06-07T13:38:29.182Z,1.7
2019-06-07T13:39:29.804Z,1.6
2019-06-07T13:40:28.725Z,1.6
2019-06-07T13:41:40.225Z,1.5
2019-06-07T13:42:28.698Z,1.4
2019-06-07T13:43:28.652Z,1.4
2019-06-07T13:44:29.800Z,1.4
2019-06-07T13:45:28.925Z,1.4
2019-06-07T13:46:29.112Z,1.4
2019-06-07T13:47:29.161Z,1.6
2019-06-07T13:48:29.189Z,1.5
2019-06-07T13:49:29.194Z,1.5
2019-06-07T13:50:29.161Z,1.6
2019-06-07T13:51:32.474Z,1.4
2019-06-07T13:52:29.513Z,1.7
2019-06-07T13:53:29.534Z,1.5
2019-06-07T13:54:29.749Z,1.6
2019-06-07T13:55:29.551Z,1.6
2019-06-07T13:56:29.583Z,1.6
2019-06-07T13:57:29.623Z,1.1
2019-06-07T13:58:29.597Z,1.3
2019-06-07T13:59:29.758Z,1.3
2019-06-07T14:00:29.745Z,1.3
2019-06-07T14:01:29.868Z,1.3
2019-06-07T14:02:30.033Z,1.3
2019-06-07T14:03:33.500Z,1.4
2019-06-07T14:04:30.210Z,1.3
2019-06-07T14:05:30.223Z,1.3
2019-06-07T14:06:30.409Z,1.3
2019-06-07T14:07:30.397Z,1.3
2019-06-07T14:08:30.445Z,1.3
2019-06-07T14:09:30.427Z,1.2
2019-06-07T14:10:30.555Z,1.3
2019-06-07T14:11:46.765Z,1.3
2019-06-07T14:12:30.853Z,1.4
2019-06-07T14:13:30.916Z,1.4
2019-06-07T14:14:31.077Z,1.2
2019-06-07T14:15:33.782Z,1.4
2019-06-07T14:16:31.035Z,1.2
2019-06-07T14:17:32.543Z,1.2
2019-06-07T14:18:31.374Z,1.4
2019-06-07T14:19:31.362Z,1.4
2019-06-07T14:20:34.535Z,1.4
2019-06-07T14:21:31.501Z,1.3
2019-06-07T14:22:31.534Z,1.3
2019-06-07T14:23:45.631Z,1.4
2019-06-07T14:24:31.562Z,1.1
2019-06-07T14:25:31.568Z,1.3
2019-06-07T14:26:32.500Z,1.4
2019-06-07T14:27:31.955Z,1.1
2019-06-07T14:28:33.751Z,1.2
2019-06-07T14:29:31.866Z,1.2
2019-06-07T14:30:32.618Z,1.3
2019-06-07T14:31:32.212Z,1.2
2019-06-07T14:32:32.712Z,1.3
2019-06-07T14:33:33.447Z,1.1
2019-06-07T14:34:32.639Z,1.2
2019-06-07T14:35:33.657Z,1.4
2019-06-07T14:36:33.281Z,1.2
2019-06-07T14:37:33.008Z,1.1
2019-06-07T14:38:35.356Z,1.2
2019-06-07T14:39:33.619Z,1.1
2019-06-07T14:40:33.982Z,1.2
2019-06-07T14:41:33.635Z,1.1
2019-06-07T14:42:33.409Z,1.1
2019-06-07T14:43:34.058Z,1.2
2019-06-07T14:44:33.857Z,1.1
2019-06-07T14:45:34.034Z,1.1
2019-06-07T14:46:32.706Z,1.2
2019-06-07T14:47:34.042Z,1.2
2019-06-07T14:48:32.858Z,1.2
2019-06-07T14:49:34.375Z,1.2
2019-06-07T14:50:34.391Z,1.4
2019-06-07T14:51:33.407Z,1.3
2019-06-07T14:52:33.349Z,1.3
2019-06-07T14:53:33.220Z,1.5
2019-06-07T14:54:35.961Z,1.2
2019-06-07T14:55:33.025Z,1.4
2019-06-07T14:56:33.240Z,1.3
2019-06-07T14:57:33.784Z,1.4
2019-06-07T14:58:37.908Z,1.8
2019-06-07T14:59:34.745Z,1.5
2019-06-07T15:00:34.498Z,1.5
2019-06-07T15:01:33.566Z,1.3
2019-06-07T15:02:36.394Z,1.7
2019-06-07T15:03:34.712Z,1.5
2019-06-07T15:04:34.664Z,1.2
2019-06-07T15:05:35.625Z,1.4
2019-06-07T15:06:34.928Z,1.2
2019-06-07T15:07:34.843Z,1.3
2019-06-07T15:08:34.890Z,1.5
2019-06-07T15:09:35.199Z,1.3